Time;durP1;ratioP1;P1;durP2;ratioP2;P2;SDS_P1;SDS_P2;PMS_P1;PMS_P2;Temp;Humidity;BMP_temperature;BMP_pressure;BME280_temperature;BME280_humidity;BME280_pressure;Samples;Min_cycle;Max_cycle;Signal;HPM_P1;HPM_P2
2020/06/07 00:02:22;;;;;;;1.01;1.01;;;;;;;20.15;49.67;99481.71;;;;-52
2020/06/07 00:05:22;;;;;;;1.06;1.06;;;;;;;20.16;49.66;99485.40;;;;-52
2020/06/07 00:08:27;;;;;;;1.13;1.11;;;;;;;20.16;49.67;99483.05;;;;-52
2020/06/07 00:11:22;;;;;;;1.17;1.12;;;;;;;20.15;49.72;99484.30;;;;-52
2020/06/07 00:14:22;;;;;;;1.13;1.13;;;;;;;20.15;49.65;99484.63;;;;-52
2020/06/07 00:17:22;;;;;;;1.30;1.20;;;;;;;20.14;49.71;99485.71;;;;-52
2020/06/07 00:20:22;;;;;;;1.19;1.11;;;;;;;20.15;49.74;99486.31;;;;-52
2020/06/07 00:23:22;;;;;;;1.10;1.10;;;;;;;20.15;49.69;99488.49;;;;-52
2020/06/07 00:37:22;;;;;;;1.10;1.10;;;;;;;20.13;49.74;99490.72;;;;-52
2020/06/07 00:40:22;;;;;;;1.10;1.10;;;;;;;20.13;49.78;99494.98;;;;-52
2020/06/07 00:43:22;;;;;;;1.25;1.13;;;;;;;20.12;49.78;99504.67;;;;-52
2020/06/07 00:46:22;;;;;;;1.25;1.15;;;;;;;20.11;49.80;99506.92;;;;-52
2020/06/07 00:49:22;;;;;;;1.19;1.10;;;;;;;20.12;49.79;99511.88;;;;-52
2020/06/07 00:52:22;;;;;;;1.11;1.03;;;;;;;20.12;49.76;99519.25;;;;-52
2020/06/07 00:55:22;;;;;;;1.12;1.10;;;;;;;20.11;49.76;99511.62;;;;-52
2020/06/07 00:58:22;;;;;;;0.97;0.97;;;;;;;20.11;49.79;99512.02;;;;-52
2020/06/07 01:01:22;;;;;;;1.09;1.09;;;;;;;20.10;49.79;99506.05;;;;-52
2020/06/07 01:04:23;;;;;;;1.11;1.00;;;;;;;20.11;49.76;99508.09;;;;-52
2020/06/07 01:07:22;;;;;;;1.11;1.03;;;;;;;20.09;49.73;99504.19;;;;-52
2020/06/07 01:10:22;;;;;;;0.99;0.99;;;;;;;20.10;49.71;99509.65;;;;-52
2020/06/07 01:13:22;;;;;;;1.00;1.00;;;;;;;20.10;49.73;99507.06;;;;-52
2020/06/07 01:16:22;;;;;;;1.04;1.04;;;;;;;20.10;49.76;99510.16;;;;-52
2020/06/07 01:19:22;;;;;;;1.08;1.07;;;;;;;20.09;49.75;99518.27;;;;-52
2020/06/07 01:22:22;;;;;;;1.10;1.10;;;;;;;20.10;49.69;99522.05;;;;-52
2020/06/07 01:25:22;;;;;;;1.10;1.10;;;;;;;20.09;49.65;99522.29;;;;-52
2020/06/07 01:28:22;;;;;;;1.16;1.09;;;;;;;20.09;49.70;99524.30;;;;-52
2020/06/07 01:31:22;;;;;;;1.02;1.02;;;;;;;20.09;49.72;99523.70;;;;-52
2020/06/07 01:34:22;;;;;;;0.91;0.91;;;;;;;20.08;49.76;99524.94;;;;-52
2020/06/07 01:37:22;;;;;;;1.05;1.05;;;;;;;20.08;49.71;99519.75;;;;-52
2020/06/07 01:40:43;;;;;;;1.05;1.05;;;;;;;20.08;49.70;99526.02;;;;-52
2020/06/07 01:43:23;;;;;;;1.01;1.01;;;;;;;20.08;49.70;99524.17;;;;-52
2020/06/07 01:46:22;;;;;;;1.10;1.10;;;;;;;20.07;49.70;99523.91;;;;-52
2020/06/07 01:49:22;;;;;;;1.29;1.19;;;;;;;20.08;49.72;99532.05;;;;-52
2020/06/07 01:52:22;;;;;;;1.01;1.01;;;;;;;20.07;49.71;99532.29;;;;-52
2020/06/07 01:58:31;;;;;;;0.99;0.99;;;;;;;20.07;49.71;99541.84;;;;-52
2020/06/07 02:24:34;;;;;;;0.99;0.99;;;;;;;20.05;49.65;99541.86;;;;-52
2020/06/07 02:27:29;;;;;;;1.17;1.07;;;;;;;20.04;49.64;99543.77;;;;-52
2020/06/07 02:31:43;;;;;;;1.13;1.10;;;;;;;20.04;49.64;99534.96;;;;-52
2020/06/07 02:37:26;;;;;;;1.12;1.10;;;;;;;20.03;49.67;99532.69;;;;-52
2020/06/07 02:43:23;;;;;;;1.07;1.07;;;;;;;20.03;49.72;99544.52;;;;-52
2020/06/07 02:49:28;;;;;;;1.12;1.12;;;;;;;20.02;49.70;99537.28;;;;-52
2020/06/07 02:55:22;;;;;;;1.31;1.19;;;;;;;20.02;49.73;99535.41;;;;-52
2020/06/07 02:58:22;;;;;;;1.10;1.10;;;;;;;20.03;49.71;99540.30;;;;-52
2020/06/07 03:01:22;;;;;;;1.15;1.15;;;;;;;20.02;49.70;99547.41;;;;-52
2020/06/07 03:04:43;;;;;;;1.10;1.10;;;;;;;20.02;49.67;99549.59;;;;-52
2020/06/07 03:10:26;;;;;;;1.09;1.09;;;;;;;20.01;49.71;99537.99;;;;-52
2020/06/07 03:16:24;;;;;;;1.01;1.01;;;;;;;20.01;49.69;99549.39;;;;-52
2020/06/07 03:19:22;;;;;;;1.07;1.07;;;;;;;20.01;49.75;99553.81;;;;-52
2020/06/07 03:25:22;;;;;;;1.01;1.01;;;;;;;20.01;49.73;99554.32;;;;-52
2020/06/07 03:28:22;;;;;;;1.00;1.00;;;;;;;20.00;49.70;99555.89;;;;-52
2020/06/07 03:31:26;;;;;;;1.10;1.10;;;;;;;20.00;49.70;99558.58;;;;-52
2020/06/07 03:34:27;;;;;;;1.16;1.08;;;;;;;20.00;49.67;99555.83;;;;-52
2020/06/07 03:37:22;;;;;;;1.13;1.08;;;;;;;20.00;49.73;99560.52;;;;-52
2020/06/07 03:40:23;;;;;;;1.29;1.19;;;;;;;19.99;49.73;99553.13;;;;-52
2020/06/07 03:47:09;;;;;;;1.01;1.01;;;;;;;19.99;49.74;99564.08;;;;-52
2020/06/07 03:49:29;;;;;;;1.03;1.03;;;;;;;19.99;49.68;99560.13;;;;-52
2020/06/07 03:52:31;;;;;;;1.02;1.02;;;;;;;19.98;49.72;99560.80;;;;-52
2020/06/07 03:55:46;;;;;;;1.01;1.01;;;;;;;19.98;49.78;99568.27;;;;-52
2020/06/07 03:58:29;;;;;;;1.12;1.12;;;;;;;19.98;49.86;99578.43;;;;-52
2020/06/07 04:15:40;;;;;;;1.15;1.09;;;;;;;19.98;49.81;99596.60;;;;-52
2020/06/07 04:18:41;;;;;;;1.03;1.00;;;;;;;19.98;49.91;99595.59;;;;-52
2020/06/07 04:21:32;;;;;;;1.10;1.10;;;;;;;19.97;49.90;99596.77;;;;-52
2020/06/07 04:31:28;;;;;;;1.30;1.10;;;;;;;19.98;49.82;99605.31;;;;-52
2020/06/07 04:40:30;;;;;;;1.13;1.11;;;;;;;19.98;49.86;99602.36;;;;-52
2020/06/07 04:43:37;;;;;;;1.17;1.10;;;;;;;19.99;49.84;99604.70;;;;-52
2020/06/07 04:46:34;;;;;;;1.13;1.10;;;;;;;19.99;49.85;99604.80;;;;-52
2020/06/07 04:55:11;;;;;;;1.29;1.19;;;;;;;19.99;49.85;99612.58;;;;-52
2020/06/07 04:58:32;;;;;;;1.21;1.11;;;;;;;19.98;49.78;99617.88;;;;-52
2020/06/07 05:04:31;;;;;;;1.05;1.00;;;;;;;19.98;49.72;99612.86;;;;-52
2020/06/07 05:07:41;;;;;;;1.18;1.14;;;;;;;19.98;49.72;99619.05;;;;-52
2020/06/07 05:10:31;;;;;;;1.15;1.10;;;;;;;19.98;49.72;99619.63;;;;-52
2020/06/07 05:17:41;;;;;;;1.11;1.09;;;;;;;19.97;49.72;99618.66;;;;-50
2020/06/07 05:20:37;;;;;;;1.93;1.10;;;;;;;19.97;49.84;99620.00;;;;-52
2020/06/07 05:30:49;;;;;;;1.14;1.07;;;;;;;19.97;49.81;99614.63;;;;-52
2020/06/07 05:34:14;;;;;;;0.96;0.96;;;;;;;19.97;49.86;99614.37;;;;-52
2020/06/07 05:47:58;;;;;;;1.29;1.19;;;;;;;19.98;49.87;99636.42;;;;-52
2020/06/07 05:50:29;;;;;;;1.09;1.05;;;;;;;19.98;49.80;99642.34;;;;-52
2020/06/07 05:56:44;;;;;;;1.85;1.10;;;;;;;19.98;49.81;99645.70;;;;-52
2020/06/07 06:03:51;;;;;;;1.31;1.09;;;;;;;19.99;49.85;99646.44;;;;-52
2020/06/07 06:06:30;;;;;;;1.27;1.17;;;;;;;19.99;49.79;99649.13;;;;-52
2020/06/07 06:09:30;;;;;;;1.30;1.20;;;;;;;19.98;49.78;99650.63;;;;-52
2020/06/07 06:28:29;;;;;;;2.58;1.20;;;;;;;19.99;49.84;99664.20;;;;-54
2020/06/07 06:31:48;;;;;;;1.31;1.10;;;;;;;19.99;49.76;99668.16;;;;-55
2020/06/07 06:34:40;;;;;;;2.09;1.11;;;;;;;19.99;49.82;99669.93;;;;-55
2020/06/07 06:37:36;;;;;;;1.69;1.12;;;;;;;19.99;49.77;99668.66;;;;-55
2020/06/07 06:40:28;;;;;;;1.15;1.07;;;;;;;19.99;49.89;99672.92;;;;-54
2020/06/07 06:43:39;;;;;;;2.35;1.09;;;;;;;19.99;49.86;99675.46;;;;-54
2020/06/07 06:46:28;;;;;;;1.70;1.08;;;;;;;19.99;49.90;99674.09;;;;-55
2020/06/07 06:55:33;;;;;;;1.12;1.02;;;;;;;19.99;49.91;99685.31;;;;-54
2020/06/07 06:58:29;;;;;;;1.99;1.10;;;;;;;19.99;49.87;99687.27;;;;-55
2020/06/07 07:04:26;;;;;;;1.30;1.20;;;;;;;19.99;49.90;99696.81;;;;-55
2020/06/07 07:07:40;;;;;;;1.10;1.10;;;;;;;19.99;49.93;99708.04;;;;-54
2020/06/07 07:10:43;;;;;;;2.03;1.13;;;;;;;19.99;49.86;99707.88;;;;-54
2020/06/07 07:14:13;;;;;;;1.53;1.00;;;;;;;19.99;49.86;99709.21;;;;-55
2020/06/07 07:16:48;;;;;;;1.21;1.13;;;;;;;19.99;49.91;99714.08;;;;-54
2020/06/07 07:20:12;;;;;;;1.20;1.10;;;;;;;19.98;49.84;99719.27;;;;-54
2020/06/07 07:22:32;;;;;;;1.10;1.06;;;;;;;19.99;49.87;99716.75;;;;-54
2020/06/07 07:25:41;;;;;;;1.30;1.20;;;;;;;19.98;49.83;99715.75;;;;-54
2020/06/07 07:31:34;;;;;;;1.13;1.11;;;;;;;19.99;49.90;99720.11;;;;-55
2020/06/07 07:41:27;;;;;;;1.14;1.06;;;;;;;19.98;49.79;99723.30;;;;-54
2020/06/07 07:50:49;;;;;;;3.53;1.62;;;;;;;19.89;51.27;99737.62;;;;-56
2020/06/07 07:54:00;;;;;;;2.73;1.66;;;;;;;19.84;52.01;99737.74;;;;-52
2020/06/07 07:59:33;;;;;;;2.51;1.83;;;;;;;19.91;51.55;99741.05;;;;-53
2020/06/07 08:02:30;;;;;;;2.51;1.58;;;;;;;19.94;51.24;99740.56;;;;-53
2020/06/07 08:08:29;;;;;;;2.78;1.50;;;;;;;20.00;51.08;99731.37;;;;-52
2020/06/07 08:11:28;;;;;;;2.05;1.41;;;;;;;20.02;51.04;99731.86;;;;-51
2020/06/07 08:21:13;;;;;;;2.75;1.41;;;;;;;20.08;51.16;99739.56;;;;-51
2020/06/07 08:24:29;;;;;;;3.24;1.42;;;;;;;20.09;51.12;99736.73;;;;-51
2020/06/07 08:27:40;;;;;;;1.59;1.38;;;;;;;20.10;50.98;99743.23;;;;-50
2020/06/07 08:30:46;;;;;;;2.52;1.40;;;;;;;20.11;51.02;99745.34;;;;-50
2020/06/07 08:33:33;;;;;;;1.47;1.33;;;;;;;20.11;50.73;99743.50;;;;-51
2020/06/07 08:36:23;;;;;;;2.13;1.59;;;;;;;20.13;50.71;99751.61;;;;-51
2020/06/07 08:39:22;;;;;;;1.97;1.39;;;;;;;20.12;50.74;99759.89;;;;-52
2020/06/07 08:42:22;;;;;;;1.85;1.31;;;;;;;20.13;50.63;99760.77;;;;-51
2020/06/07 08:45:22;;;;;;;1.55;1.30;;;;;;;20.14;50.77;99756.00;;;;-55
2020/06/07 08:48:22;;;;;;;2.19;1.39;;;;;;;20.14;50.70;99757.17;;;;-53
2020/06/07 08:51:22;;;;;;;2.79;1.44;;;;;;;20.16;50.72;99764.68;;;;-57
2020/06/07 08:54:22;;;;;;;1.59;1.39;;;;;;;20.17;50.58;99764.14;;;;-57
2020/06/07 08:57:22;;;;;;;1.93;1.34;;;;;;;20.18;50.68;99768.59;;;;-56
2020/06/07 09:00:22;;;;;;;2.21;1.39;;;;;;;20.19;50.73;99772.08;;;;-53
2020/06/07 09:03:22;;;;;;;1.70;1.37;;;;;;;20.20;50.66;99772.95;;;;-53
2020/06/07 09:06:22;;;;;;;1.52;1.42;;;;;;;20.21;50.61;99776.27;;;;-52
2020/06/07 09:09:22;;;;;;;1.51;1.39;;;;;;;20.22;50.62;99774.28;;;;-52
2020/06/07 09:12:22;;;;;;;3.15;1.51;;;;;;;20.23;50.67;99776.39;;;;-52
2020/06/07 09:15:22;;;;;;;2.00;1.29;;;;;;;20.23;50.63;99776.30;;;;-53
2020/06/07 09:18:22;;;;;;;1.40;1.30;;;;;;;20.25;50.56;99781.78;;;;-60
2020/06/07 09:21:22;;;;;;;1.51;1.30;;;;;;;20.25;50.67;99782.09;;;;-54
2020/06/07 09:24:26;;;;;;;1.45;1.32;;;;;;;20.26;50.60;99785.30;;;;-53
2020/06/07 09:27:22;;;;;;;1.47;1.30;;;;;;;20.27;50.56;99789.66;;;;-52
2020/06/07 09:30:28;;;;;;;2.24;1.35;;;;;;;20.28;50.54;99794.45;;;;-56
2020/06/07 09:33:22;;;;;;;1.45;1.35;;;;;;;20.27;50.23;99793.42;;;;-57
2020/06/07 09:36:22;;;;;;;2.21;1.39;;;;;;;20.26;50.34;99792.68;;;;-56
2020/06/07 09:39:23;;;;;;;1.54;1.34;;;;;;;20.25;50.31;99794.30;;;;-55
2020/06/07 09:42:22;;;;;;;3.91;1.47;;;;;;;20.26;50.38;99800.86;;;;-52
2020/06/07 09:45:22;;;;;;;3.51;1.30;;;;;;;20.28;50.31;99803.54;;;;-57
2020/06/07 09:48:22;;;;;;;1.52;1.40;;;;;;;20.28;50.37;99803.30;;;;-53
2020/06/07 09:51:22;;;;;;;1.82;1.31;;;;;;;20.29;50.36;99800.02;;;;-54
2020/06/07 09:54:22;;;;;;;2.49;1.40;;;;;;;20.30;50.37;99808.06;;;;-55
2020/06/07 09:57:22;;;;;;;3.09;1.35;;;;;;;20.31;50.40;99814.77;;;;-55
2020/06/07 10:00:22;;;;;;;3.00;1.31;;;;;;;20.31;50.38;99811.08;;;;-54
2020/06/07 10:03:24;;;;;;;4.71;1.22;;;;;;;20.32;50.35;99809.37;;;;-52
2020/06/07 10:10:33;;;;;;;5.66;1.53;;;;;;;20.34;50.36;99820.83;;;;-57
2020/06/07 10:13:33;;;;;;;2.66;1.30;;;;;;;20.35;50.27;99810.53;;;;-53
2020/06/07 10:16:41;;;;;;;2.85;1.29;;;;;;;20.36;50.20;99814.42;;;;-58
2020/06/07 10:19:29;;;;;;;3.15;1.38;;;;;;;20.36;50.31;99820.72;;;;-52
2020/06/07 10:22:30;;;;;;;5.13;1.43;;;;;;;20.37;50.27;99833.16;;;;-53
2020/06/07 10:28:35;;;;;;;1.90;1.43;;;;;;;20.39;50.28;99828.94;;;;-55
2020/06/07 10:35:38;;;;;;;1.48;1.33;;;;;;;20.40;50.30;99822.86;;;;-55
2020/06/07 10:38:38;;;;;;;2.35;1.39;;;;;;;20.41;50.24;99823.46;;;;-55
2020/06/07 10:42:11;;;;;;;1.74;1.47;;;;;;;20.41;50.19;99826.64;;;;-55
2020/06/07 10:44:46;;;;;;;1.89;1.35;;;;;;;20.42;50.17;99833.39;;;;-54
2020/06/07 10:48:04;;;;;;;1.47;1.29;;;;;;;20.42;50.14;99839.42;;;;-55
2020/06/07 10:50:43;;;;;;;1.59;1.38;;;;;;;20.42;50.17;99829.36;;;;-55
2020/06/07 11:08:44;;;;;;;1.39;1.29;;;;;;;20.42;49.97;99834.16;;;;-54
2020/06/07 11:11:32;;;;;;;1.41;1.29;;;;;;;20.42;49.87;99838.92;;;;-54
2020/06/07 11:17:31;;;;;;;1.74;1.46;;;;;;;20.41;49.84;99848.28;;;;-53
2020/06/07 11:29:43;;;;;;;2.49;1.43;;;;;;;20.39;49.67;99848.39;;;;-55
2020/06/07 11:32:39;;;;;;;1.81;1.38;;;;;;;20.37;49.62;99848.66;;;;-55
2020/06/07 11:40:34;;;;;;;2.57;1.37;;;;;;;20.36;49.56;99849.91;;;;-55
2020/06/07 11:44:00;;;;;;;1.80;1.40;;;;;;;20.35;49.55;99850.11;;;;-54
2020/06/07 11:46:26;;;;;;;1.41;1.24;;;;;;;20.35;49.53;99852.72;;;;-55
2020/06/07 11:49:39;;;;;;;1.37;1.27;;;;;;;20.35;49.50;99853.12;;;;-55
2020/06/07 11:52:40;;;;;;;1.77;1.39;;;;;;;20.34;49.48;99850.52;;;;-55
2020/06/07 11:55:31;;;;;;;1.37;1.24;;;;;;;20.34;49.49;99851.42;;;;-55
2020/06/07 11:58:27;;;;;;;1.45;1.33;;;;;;;20.33;49.45;99851.31;;;;-55
2020/06/07 12:02:28;;;;;;;2.27;1.40;;;;;;;20.33;49.43;99852.49;;;;-55
2020/06/07 12:08:39;;;;;;;1.39;1.29;;;;;;;20.32;49.35;99858.73;;;;-55
2020/06/07 12:11:32;;;;;;;1.76;1.42;;;;;;;20.33;49.33;99866.48;;;;-52
2020/06/07 12:14:37;;;;;;;1.85;1.38;;;;;;;20.32;49.36;99863.16;;;;-54
2020/06/07 12:17:37;;;;;;;2.27;1.32;;;;;;;20.32;49.42;99861.42;;;;-56
2020/06/07 12:24:42;;;;;;;2.76;1.47;;;;;;;20.34;49.48;99866.84;;;;-56
2020/06/07 12:35:34;;;;;;;3.55;1.60;;;;;;;20.38;49.68;99861.53;;;;-51
2020/06/07 12:52:27;;;;;;;4.05;1.47;;;;;;;20.42;49.65;99846.97;;;;-54
2020/06/07 12:58:24;;;;;;;2.18;1.44;;;;;;;20.41;49.69;99859.59;;;;-52
2020/06/07 13:01:06;;;;;;;2.34;1.40;;;;;;;20.40;49.63;99856.70;;;;-51
2020/06/07 13:06:47;;;;;;;1.93;1.45;;;;;;;20.38;49.57;99854.99;;;;-51
2020/06/07 13:09:42;;;;;;;2.43;1.61;;;;;;;20.38;49.53;99854.90;;;;-51
2020/06/07 13:12:43;;;;;;;4.61;1.65;;;;;;;20.38;49.49;99860.09;;;;-51
2020/06/07 13:15:42;;;;;;;3.27;1.57;;;;;;;20.36;49.48;99862.64;;;;-51
2020/06/07 13:23:48;;;;;;;2.33;1.49;;;;;;;20.35;49.44;99858.16;;;;-52
2020/06/07 13:26:57;;;;;;;2.21;1.40;;;;;;;20.35;49.41;99864.80;;;;-52
2020/06/07 13:29:48;;;;;;;2.43;1.48;;;;;;;20.34;49.40;99867.78;;;;-51
2020/06/07 13:32:48;;;;;;;1.28;1.20;;;;;;;20.34;49.37;99866.27;;;;-51
2020/06/07 13:36:47;;;;;;;2.29;1.40;;;;;;;20.33;49.34;99864.80;;;;-51
2020/06/07 13:39:53;;;;;;;2.94;1.41;;;;;;;20.33;49.36;99856.75;;;;-51
2020/06/07 13:42:57;;;;;;;5.98;1.54;;;;;;;20.32;49.32;99853.20;;;;-51
2020/06/07 13:49:01;;;;;;;2.59;1.39;;;;;;;20.33;49.40;99858.59;;;;-52
2020/06/07 13:51:52;;;;;;;1.93;1.50;;;;;;;20.34;49.54;99860.23;;;;-57
2020/06/07 13:54:47;;;;;;;5.09;1.49;;;;;;;20.38;49.64;99856.91;;;;-58
2020/06/07 13:57:52;;;;;;;1.70;1.39;;;;;;;20.39;49.44;99858.55;;;;-50
2020/06/07 14:03:49;;;;;;;1.80;1.41;;;;;;;20.42;49.56;99852.41;;;;-55
2020/06/07 14:11:57;;;;;;;4.46;1.50;;;;;;;20.43;49.66;99846.23;;;;-52
2020/06/07 14:21:33;;;;;;;2.81;1.63;;;;;;;20.45;49.90;99854.55;;;;-55
2020/06/07 14:28:06;;;;;;;3.45;1.59;;;;;;;20.47;49.76;99851.81;;;;-53
2020/06/07 14:31:35;;;;;;;15.58;1.85;;;;;;;20.49;49.76;99840.47;;;;-53
2020/06/07 14:34:57;;;;;;;4.25;1.41;;;;;;;20.49;49.68;99849.20;;;;-54
2020/06/07 14:41:48;;;;;;;2.95;1.58;;;;;;;20.50;49.67;99858.89;;;;-54
2020/06/07 14:44:47;;;;;;;2.01;1.40;;;;;;;20.51;49.68;99868.11;;;;-52
2020/06/07 14:52:00;;;;;;;1.70;1.50;;;;;;;20.51;49.45;99872.84;;;;-52
2020/06/07 15:02:52;;;;;;;2.38;1.49;;;;;;;20.52;49.40;99872.07;;;;-52
2020/06/07 15:05:58;;;;;;;2.75;1.40;;;;;;;20.52;49.42;99867.54;;;;-58
2020/06/07 15:08:48;;;;;;;3.39;1.69;;;;;;;20.52;49.40;99873.55;;;;-53
2020/06/07 15:14:56;;;;;;;2.59;1.43;;;;;;;20.53;49.38;99877.63;;;;-56
2020/06/07 15:17:58;;;;;;;4.31;1.45;;;;;;;20.54;49.36;99881.30;;;;-51
2020/06/07 15:21:00;;;;;;;3.39;1.56;;;;;;;20.54;49.30;99880.31;;;;-53
2020/06/07 15:23:57;;;;;;;8.94;1.61;;;;;;;20.55;49.26;99882.43;;;;-54
2020/06/07 15:29:51;;;;;;;3.49;1.59;;;;;;;20.56;49.36;99883.53;;;;-54
2020/06/07 15:37:03;;;;;;;5.01;1.59;;;;;;;20.56;49.39;99887.49;;;;-53
2020/06/07 15:39:57;;;;;;;3.79;1.50;;;;;;;20.57;49.26;99887.09;;;;-63
2020/06/07 15:43:00;;;;;;;2.75;1.58;;;;;;;20.57;49.22;99888.93;;;;-56
2020/06/07 15:46:02;;;;;;;4.95;1.62;;;;;;;20.58;49.22;99891.55;;;;-52
2020/06/07 15:49:10;;;;;;;3.10;1.64;;;;;;;20.58;49.20;99890.64;;;;-56
2020/06/07 15:51:58;;;;;;;2.55;1.62;;;;;;;20.57;49.10;99887.92;;;;-54
2020/06/07 15:54:50;;;;;;;3.11;1.50;;;;;;;20.57;49.15;99892.63;;;;-50
2020/06/07 15:58:05;;;;;;;3.50;1.50;;;;;;;20.57;49.17;99890.38;;;;-54
2020/06/07 16:15:56;;;;;;;7.23;1.56;;;;;;;20.58;48.85;99897.52;;;;-50
2020/06/07 16:19:09;;;;;;;3.97;1.71;;;;;;;20.58;49.00;99898.69;;;;-52
2020/06/07 16:21:49;;;;;;;5.86;1.57;;;;;;;20.58;49.10;99898.62;;;;-56
2020/06/07 16:24:58;;;;;;;4.96;1.57;;;;;;;20.59;48.98;99901.67;;;;-56
2020/06/07 16:27:56;;;;;;;3.07;1.59;;;;;;;20.59;48.93;99895.80;;;;-56
2020/06/07 16:31:31;;;;;;;3.02;1.50;;;;;;;20.59;48.93;99894.86;;;;-54
2020/06/07 16:33:57;;;;;;;3.64;1.54;;;;;;;20.61;48.89;99898.85;;;;-54
2020/06/07 16:36:49;;;;;;;1.85;1.37;;;;;;;20.60;48.89;99900.27;;;;-57
2020/06/07 16:39:53;;;;;;;2.16;1.46;;;;;;;20.60;48.91;99902.21;;;;-58
2020/06/07 16:43:00;;;;;;;5.00;1.66;;;;;;;20.60;48.90;99907.14;;;;-52
2020/06/07 16:45:57;;;;;;;1.92;1.42;;;;;;;20.61;48.92;99904.16;;;;-60
2020/06/07 16:48:49;;;;;;;1.61;1.35;;;;;;;20.62;48.83;99907.20;;;;-53
2020/06/07 16:55:04;;;;;;;2.49;1.62;;;;;;;20.62;48.82;99912.17;;;;-59
2020/06/07 16:57:58;;;;;;;2.09;1.48;;;;;;;20.62;48.82;99914.25;;;;-55
2020/06/07 17:06:59;;;;;;;3.64;1.78;;;;;;;20.61;48.46;99930.16;;;;-53
2020/06/07 17:12:57;;;;;;;4.10;1.57;;;;;;;20.59;48.73;99933.95;;;;-58
2020/06/07 17:24:30;;;;;;;4.09;1.31;;;;;;;20.57;48.71;99944.56;;;;-56
2020/06/07 17:26:49;;;;;;;4.17;1.63;;;;;;;20.56;48.68;99945.94;;;;-56
2020/06/07 17:33:48;;;;;;;1.35;1.25;;;;;;;20.56;48.65;99953.99;;;;-56
2020/06/07 17:37:07;;;;;;;2.55;1.49;;;;;;;20.55;48.61;99953.05;;;;-56
2020/06/07 17:39:49;;;;;;;2.79;1.47;;;;;;;20.54;48.56;99953.45;;;;-56
2020/06/07 17:48:08;;;;;;;3.02;1.40;;;;;;;20.53;48.51;99960.70;;;;-55
2020/06/07 17:50:49;;;;;;;1.68;1.40;;;;;;;20.54;48.50;99961.55;;;;-56
2020/06/07 17:53:54;;;;;;;2.51;1.30;;;;;;;20.53;48.51;99962.72;;;;-56
2020/06/07 17:56:48;;;;;;;1.55;1.32;;;;;;;20.52;48.51;99962.85;;;;-56
2020/06/07 17:59:45;;;;;;;1.69;1.42;;;;;;;20.51;48.50;99964.39;;;;-56
2020/06/07 18:02:49;;;;;;;1.88;1.30;;;;;;;20.51;48.51;99967.86;;;;-56
2020/06/07 18:05:49;;;;;;;1.87;1.24;;;;;;;20.51;48.48;99966.34;;;;-56
2020/06/07 18:08:54;;;;;;;1.35;1.25;;;;;;;20.49;48.48;99968.23;;;;-55
2020/06/07 18:12:10;;;;;;;2.09;1.29;;;;;;;20.49;48.48;99970.54;;;;-55
2020/06/07 18:14:54;;;;;;;1.49;1.35;;;;;;;20.49;48.50;99969.27;;;;-55
2020/06/07 18:23:57;;;;;;;2.40;1.49;;;;;;;20.47;48.49;99973.86;;;;-58
2020/06/07 18:26:49;;;;;;;2.16;1.41;;;;;;;20.47;48.48;99977.72;;;;-59
2020/06/07 18:32:50;;;;;;;1.64;1.29;;;;;;;20.46;48.48;99977.59;;;;-58
2020/06/07 18:35:53;;;;;;;1.67;1.35;;;;;;;20.47;48.48;99982.89;;;;-59
2020/06/07 18:39:07;;;;;;;1.51;1.20;;;;;;;20.46;48.47;99982.28;;;;-59
2020/06/07 18:42:10;;;;;;;1.51;1.29;;;;;;;20.45;48.45;99985.87;;;;-58
2020/06/07 18:45:03;;;;;;;1.62;1.20;;;;;;;20.46;48.42;99988.66;;;;-59
2020/06/07 18:47:54;;;;;;;1.31;1.21;;;;;;;20.45;48.44;99988.39;;;;-58
2020/06/07 18:50:54;;;;;;;1.80;1.37;;;;;;;20.45;48.39;99992.41;;;;-59
2020/06/07 18:53:47;;;;;;;1.47;1.12;;;;;;;20.45;48.47;99992.55;;;;-59
2020/06/07 18:57:16;;;;;;;1.51;1.40;;;;;;;20.44;48.46;99990.27;;;;-59
2020/06/07 18:59:50;;;;;;;3.09;1.47;;;;;;;20.43;48.46;99995.38;;;;-48
2020/06/07 19:02:54;;;;;;;1.87;1.37;;;;;;;20.44;48.61;99996.81;;;;-54
2020/06/07 19:05:55;;;;;;;2.91;1.41;;;;;;;20.45;48.65;100000.44;;;;-56
2020/06/07 19:08:52;;;;;;;3.10;1.38;;;;;;;20.46;48.65;99995.60;;;;-56
2020/06/07 19:14:47;;;;;;;5.77;1.29;;;;;;;20.48;48.90;100001.94;;;;-55
2020/06/07 19:17:50;;;;;;;1.27;1.13;;;;;;;20.48;48.89;100005.43;;;;-56
2020/06/07 19:36:01;;;;;;;3.32;1.43;;;;;;;20.51;49.00;100027.50;;;;-57
2020/06/07 19:42:53;;;;;;;2.70;1.18;;;;;;;20.52;48.98;100034.81;;;;-56
2020/06/07 19:49:50;;;;;;;2.01;1.30;;;;;;;20.54;49.18;100047.09;;;;-53
2020/06/07 19:52:44;;;;;;;2.89;1.23;;;;;;;20.54;49.13;100052.83;;;;-55
2020/06/07 19:55:43;;;;;;;2.36;1.30;;;;;;;20.55;49.15;100056.86;;;;-55
2020/06/07 19:58:43;;;;;;;3.01;1.39;;;;;;;20.55;49.13;100060.66;;;;-54
2020/06/07 20:23:00;;;;;;;1.27;1.19;;;;;;;20.59;49.12;100088.97;;;;-55
2020/06/07 20:25:43;;;;;;;2.17;1.26;;;;;;;20.59;49.11;100089.71;;;;-54
2020/06/07 20:28:43;;;;;;;5.23;1.35;;;;;;;20.59;49.10;100090.59;;;;-53
2020/06/07 20:31:43;;;;;;;1.97;1.35;;;;;;;20.60;49.13;100094.04;;;;-53
2020/06/07 20:35:59;;;;;;;2.26;1.20;;;;;;;20.60;49.18;100097.73;;;;-60
2020/06/07 20:38:52;;;;;;;2.55;1.28;;;;;;;20.60;49.09;100094.71;;;;-57
2020/06/07 20:42:07;;;;;;;3.67;1.34;;;;;;;20.58;48.99;100098.67;;;;-52
2020/06/07 20:45:09;;;;;;;1.27;1.18;;;;;;;20.56;49.04;100095.92;;;;-52
2020/06/07 20:47:51;;;;;;;1.37;1.25;;;;;;;20.54;49.17;100096.22;;;;-52
2020/06/07 20:50:45;;;;;;;1.43;1.19;;;;;;;20.53;49.13;100096.55;;;;-52
2020/06/07 20:53:43;;;;;;;1.31;1.21;;;;;;;20.52;49.10;100095.78;;;;-52
2020/06/07 20:56:48;;;;;;;1.63;1.13;;;;;;;20.50;49.11;100097.39;;;;-52
2020/06/07 21:00:03;;;;;;;1.40;1.30;;;;;;;20.49;49.08;100093.50;;;;-52
2020/06/07 21:06:52;;;;;;;1.55;1.24;;;;;;;20.47;49.04;100102.92;;;;-52
2020/06/07 21:13:42;;;;;;;1.31;1.21;;;;;;;20.44;48.99;100106.91;;;;-52
2020/06/07 21:16:51;;;;;;;1.30;1.20;;;;;;;20.44;48.97;100111.61;;;;-52
2020/06/07 21:19:52;;;;;;;1.59;1.20;;;;;;;20.43;48.99;100111.50;;;;-52
2020/06/07 21:22:43;;;;;;;1.42;1.32;;;;;;;20.42;48.96;100110.23;;;;-52
2020/06/07 21:25:43;;;;;;;1.59;1.20;;;;;;;20.41;48.96;100112.38;;;;-51
2020/06/07 21:28:43;;;;;;;1.46;1.34;;;;;;;20.41;48.94;100112.84;;;;-52
2020/06/07 21:31:43;;;;;;;1.35;1.22;;;;;;;20.39;48.94;100112.03;;;;-52
2020/06/07 21:34:43;;;;;;;1.75;1.30;;;;;;;20.39;48.92;100112.14;;;;-52
2020/06/07 21:37:43;;;;;;;1.41;1.31;;;;;;;20.37;48.92;100109.45;;;;-51
2020/06/07 21:40:43;;;;;;;1.47;1.30;;;;;;;20.38;48.90;100112.44;;;;-52
2020/06/07 21:43:43;;;;;;;1.51;1.29;;;;;;;20.37;48.89;100110.28;;;;-52
2020/06/07 21:46:43;;;;;;;1.89;1.40;;;;;;;20.36;48.92;100107.50;;;;-52
2020/06/07 21:49:43;;;;;;;1.40;1.30;;;;;;;20.37;48.85;100103.91;;;;-52
2020/06/07 21:52:43;;;;;;;1.53;1.36;;;;;;;20.35;48.86;100102.09;;;;-52
2020/06/07 21:55:43;;;;;;;1.92;1.30;;;;;;;20.34;48.89;100098.20;;;;-52
2020/06/07 21:58:43;;;;;;;1.40;1.30;;;;;;;20.34;48.84;100097.09;;;;-52
2020/06/07 22:01:43;;;;;;;1.30;1.20;;;;;;;20.33;48.87;100098.67;;;;-51
2020/06/07 22:04:43;;;;;;;1.38;1.28;;;;;;;20.33;48.85;100100.59;;;;-52
2020/06/07 22:07:43;;;;;;;1.47;1.29;;;;;;;20.33;48.78;100101.99;;;;-52
2020/06/07 22:10:43;;;;;;;1.67;1.29;;;;;;;20.32;48.83;100102.06;;;;-52
2020/06/07 22:13:43;;;;;;;2.00;1.34;;;;;;;20.32;48.82;100101.89;;;;-52
2020/06/07 22:16:43;;;;;;;1.35;1.25;;;;;;;20.31;48.82;100102.46;;;;-52
2020/06/07 22:19:43;;;;;;;1.41;1.31;;;;;;;20.30;48.83;100102.70;;;;-52
2020/06/07 22:25:43;;;;;;;1.58;1.44;;;;;;;20.28;48.81;100109.84;;;;-52
2020/06/07 22:28:43;;;;;;;1.51;1.41;;;;;;;20.29;48.82;100112.69;;;;-52
2020/06/07 22:31:43;;;;;;;1.41;1.31;;;;;;;20.27;48.83;100113.32;;;;-52
2020/06/07 22:38:43;;;;;;;1.39;1.29;;;;;;;20.27;48.81;100115.91;;;;-51
2020/06/07 22:41:43;;;;;;;1.45;1.35;;;;;;;20.27;48.84;100114.53;;;;-52
2020/06/07 22:44:43;;;;;;;1.41;1.31;;;;;;;20.26;48.82;100114.02;;;;-52
2020/06/07 22:47:43;;;;;;;1.53;1.39;;;;;;;20.25;48.78;100115.59;;;;-51
2020/06/07 22:50:43;;;;;;;1.52;1.42;;;;;;;20.25;48.84;100116.13;;;;-52
2020/06/07 22:53:43;;;;;;;1.69;1.56;;;;;;;20.24;48.81;100117.14;;;;-52
2020/06/07 22:56:43;;;;;;;1.67;1.47;;;;;;;20.24;48.83;100118.71;;;;-52
2020/06/07 22:59:43;;;;;;;1.45;1.35;;;;;;;20.23;48.83;100118.95;;;;-51
2020/06/07 23:02:43;;;;;;;1.51;1.41;;;;;;;20.23;48.79;100122.63;;;;-52
2020/06/07 23:05:43;;;;;;;1.67;1.50;;;;;;;20.22;48.80;100124.61;;;;-52
2020/06/07 23:08:43;;;;;;;2.32;1.64;;;;;;;20.22;48.82;100127.80;;;;-51
2020/06/07 23:11:43;;;;;;;1.66;1.56;;;;;;;20.22;48.82;100127.46;;;;-52
2020/06/07 23:14:43;;;;;;;1.59;1.49;;;;;;;20.22;48.77;100125.45;;;;-52
